createdAt,value
2022-08-18T00:01:17.206Z,18.20
2022-08-18T00:03:56.734Z,18.20
2022-08-18T00:06:30.111Z,18.20
2022-08-18T00:09:00.566Z,18.20
2022-08-18T00:11:41.035Z,18.20
2022-08-18T00:14:14.557Z,18.10
2022-08-18T00:16:54.312Z,18.20
2022-08-18T00:19:45.903Z,18.20
2022-08-18T00:22:15.981Z,18.20
2022-08-18T00:24:48.426Z,18.20
2022-08-18T00:27:28.557Z,18.20
2022-08-18T00:30:01.073Z,18.20
2022-08-18T00:32:33.993Z,18.20
2022-08-18T00:35:08.909Z,18.20
2022-08-18T00:37:38.035Z,18.20
2022-08-18T00:40:09.424Z,18.20
2022-08-18T00:42:43.952Z,18.20
2022-08-18T00:45:17.265Z,18.20
2022-08-18T00:47:46.332Z,18.20
2022-08-18T00:50:18.990Z,18.30
2022-08-18T00:52:54.993Z,18.20
2022-08-18T00:55:25.638Z,18.20
2022-08-18T00:58:01.339Z,18.20
2022-08-18T01:00:30.568Z,18.20
2022-08-18T01:03:02.599Z,18.20
2022-08-18T01:05:40.862Z,18.20
2022-08-18T01:08:14.277Z,18.10
2022-08-18T01:10:44.662Z,18.10
2022-08-18T01:13:15.195Z,18.10
2022-08-18T01:15:44.354Z,18.20
2022-08-18T01:18:33.022Z,18.20
2022-08-18T01:21:33.743Z,18.10
2022-08-18T01:24:08.194Z,18.20
2022-08-18T01:26:44.130Z,18.20
2022-08-18T01:29:18.961Z,18.20
2022-08-18T01:31:56.255Z,18.20
2022-08-18T01:34:28.579Z,18.20
2022-08-18T01:36:58.608Z,18.20
2022-08-18T01:41:27.544Z,18.20
2022-08-18T01:42:18.747Z,18.20
2022-08-18T01:44:51.372Z,18.20
2022-08-18T01:47:20.936Z,18.20
2022-08-18T01:49:50.248Z,18.20
2022-08-18T01:52:21.520Z,18.10
2022-08-18T01:54:54.080Z,18.10
2022-08-18T01:57:23.583Z,18.10
2022-08-18T01:59:52.860Z,18.10
2022-08-18T02:02:26.319Z,18.10
2022-08-18T02:04:58.190Z,18.10
2022-08-18T02:07:27.945Z,18.10
2022-08-18T02:10:12.008Z,18.10
2022-08-18T02:12:42.171Z,18.10
2022-08-18T02:15:12.553Z,18.20
2022-08-18T02:17:44.044Z,18.10
2022-08-18T02:20:15.308Z,18.20
2022-08-18T02:22:45.239Z,18.20
2022-08-18T02:25:17.006Z,18.20
2022-08-18T02:27:47.124Z,18.20
2022-08-18T02:30:18.220Z,18.20
2022-08-18T02:32:47.307Z,18.20
2022-08-18T02:35:16.664Z,18.30
2022-08-18T02:37:48.231Z,18.30
2022-08-18T02:40:19.654Z,18.20
2022-08-18T02:42:49.832Z,18.30
2022-08-18T02:45:19.635Z,18.30
2022-08-18T02:47:54.249Z,18.20
2022-08-18T02:50:25.036Z,18.20
2022-08-18T02:52:54.449Z,18.20
2022-08-18T02:55:26.811Z,18.20
2022-08-18T02:57:56.071Z,18.20
2022-08-18T03:00:25.200Z,18.20
2022-08-18T03:02:54.607Z,18.20
2022-08-18T03:05:23.719Z,18.10
2022-08-18T03:07:52.861Z,18.10
2022-08-18T03:10:31.891Z,18.00
2022-08-18T03:13:06.859Z,18.00
2022-08-18T03:15:36.106Z,18.00
2022-08-18T03:18:05.523Z,18.00
2022-08-18T03:20:34.658Z,18.00
2022-08-18T03:23:05.800Z,18.00
2022-08-18T03:25:45.623Z,18.00
2022-08-18T03:28:17.628Z,17.90
2022-08-18T03:30:46.769Z,17.90
2022-08-18T03:33:15.879Z,17.90
2022-08-18T03:35:44.901Z,17.80
2022-08-18T03:38:14.116Z,17.80
2022-08-18T03:40:43.340Z,17.80
2022-08-18T03:43:49.840Z,17.80
2022-08-18T03:46:04.044Z,17.80
2022-08-18T03:48:33.534Z,17.80
2022-08-18T03:51:06.857Z,17.80
2022-08-18T03:53:36.498Z,17.80
2022-08-18T03:56:17.582Z,17.80
2022-08-18T03:58:48.562Z,17.80
2022-08-18T04:01:26.177Z,17.80
2022-08-18T04:03:59.909Z,17.80
2022-08-18T04:06:31.115Z,17.80
2022-08-18T04:09:02.439Z,17.90
2022-08-18T04:11:35.716Z,17.90
2022-08-18T04:14:06.735Z,17.90
2022-08-18T04:16:38.428Z,18.00
2022-08-18T04:19:08.919Z,18.00
2022-08-18T04:21:40.804Z,17.90
2022-08-18T04:24:11.083Z,18.00
2022-08-18T04:26:42.944Z,18.00
2022-08-18T04:29:12.434Z,18.00
2022-08-18T04:31:42.987Z,18.00
2022-08-18T04:34:12.541Z,18.00
2022-08-18T04:36:43.200Z,18.00
2022-08-18T04:39:13.973Z,18.00
2022-08-18T04:41:44.661Z,18.00
2022-08-18T04:44:14.898Z,18.00
2022-08-18T04:46:48.713Z,18.00
2022-08-18T04:49:19.355Z,18.00
2022-08-18T04:52:26.986Z,18.00
2022-08-18T04:55:01.711Z,18.00
2022-08-18T04:57:33.675Z,17.90
2022-08-18T05:00:07.623Z,18.00
2022-08-18T05:02:38.105Z,18.00
2022-08-18T05:05:08.070Z,18.00
2022-08-18T05:07:37.170Z,18.00
2022-08-18T05:10:07.061Z,18.00
2022-08-18T05:12:36.523Z,18.00
2022-08-18T05:15:06.773Z,18.10
2022-08-18T05:17:39.872Z,18.00
2022-08-18T05:20:11.005Z,18.00
2022-08-18T05:22:41.419Z,18.00
2022-08-18T05:25:13.597Z,18.00
2022-08-18T05:27:44.903Z,18.00
2022-08-18T05:30:15.381Z,18.00
2022-08-18T05:32:50.185Z,18.10
2022-08-18T05:35:26.743Z,18.10
2022-08-18T05:38:27.078Z,18.00
2022-08-18T05:41:07.570Z,18.00
2022-08-18T05:43:51.697Z,18.10
2022-08-18T05:46:26.009Z,18.10
2022-08-18T05:48:56.417Z,18.10
2022-08-18T05:51:34.439Z,18.10
2022-08-18T05:54:21.989Z,18.10
2022-08-18T05:56:53.417Z,18.00
2022-08-18T05:59:24.250Z,18.10
2022-08-18T06:01:59.874Z,18.10
2022-08-18T06:04:42.704Z,18.10
2022-08-18T06:07:15.641Z,18.10
2022-08-18T06:09:50.589Z,18.10
2022-08-18T06:12:27.048Z,18.10
2022-08-18T06:15:05.820Z,18.10
2022-08-18T06:17:58.538Z,18.10
2022-08-18T06:20:35.222Z,18.10
2022-08-18T06:23:28.126Z,18.00
2022-08-18T06:26:11.821Z,18.10
2022-08-18T06:28:59.142Z,18.00
2022-08-18T06:31:36.839Z,18.00
2022-08-18T06:34:15.791Z,18.10
2022-08-18T06:36:54.145Z,18.10
2022-08-18T06:39:30.538Z,18.10
2022-08-18T06:41:59.710Z,18.20
2022-08-18T06:44:34.752Z,18.10
2022-08-18T06:47:18.647Z,18.20
2022-08-18T06:49:54.972Z,18.20
2022-08-18T06:52:30.246Z,18.30
2022-08-18T06:55:02.340Z,18.30
2022-08-18T06:57:34.981Z,18.40
2022-08-18T07:00:11.419Z,18.40
2022-08-18T07:02:52.455Z,18.40
2022-08-18T07:05:24.431Z,18.40
2022-08-18T07:08:12.768Z,18.40
2022-08-18T07:10:44.678Z,18.40
2022-08-18T07:13:23.296Z,18.40
2022-08-18T07:15:52.482Z,18.40
2022-08-18T07:18:28.005Z,18.40
2022-08-18T07:21:02.634Z,18.50
2022-08-18T07:23:38.414Z,18.50
2022-08-18T07:26:15.202Z,18.60
2022-08-18T07:28:46.740Z,18.60
2022-08-18T07:31:27.223Z,18.70
2022-08-18T07:34:02.215Z,18.70
2022-08-18T07:36:36.668Z,18.70
2022-08-18T07:39:15.277Z,18.90
2022-08-18T07:41:50.770Z,19.00
2022-08-18T07:44:26.229Z,19.20
2022-08-18T07:47:00.789Z,19.20
2022-08-18T07:49:35.355Z,19.20
2022-08-18T07:52:19.242Z,19.30
2022-08-18T07:55:07.502Z,19.30
2022-08-18T07:57:50.411Z,19.20
2022-08-18T08:00:54.894Z,19.20
2022-08-18T08:03:30.604Z,19.20
2022-08-18T08:06:06.906Z,19.20
2022-08-18T08:08:43.320Z,19.30
2022-08-18T08:11:27.511Z,19.40
2022-08-18T08:14:12.395Z,19.50
2022-08-18T08:16:47.560Z,19.50
2022-08-18T08:20:00.164Z,19.50
2022-08-18T08:22:37.632Z,19.60
2022-08-18T08:25:42.260Z,19.80
2022-08-18T08:28:19.046Z,19.80
2022-08-18T08:30:54.645Z,20.00
2022-08-18T08:33:29.525Z,20.10
2022-08-18T08:36:04.690Z,20.10
2022-08-18T08:38:42.643Z,20.20
2022-08-18T08:41:20.985Z,20.40
2022-08-18T08:44:01.807Z,20.70
2022-08-18T08:46:44.769Z,20.90
2022-08-18T08:49:29.924Z,21.10
2022-08-18T08:52:03.600Z,21.40
2022-08-18T08:54:41.518Z,21.70
2022-08-18T08:57:12.506Z,21.80
2022-08-18T08:59:46.708Z,21.90
2022-08-18T09:02:49.688Z,22.00
2022-08-18T09:05:23.939Z,22.00
2022-08-18T09:08:21.176Z,22.00
2022-08-18T09:11:19.150Z,22.10
2022-08-18T09:14:24.729Z,22.10
2022-08-18T09:17:10.399Z,22.10
2022-08-18T09:20:13.063Z,22.20
2022-08-18T09:22:49.016Z,22.10
2022-08-18T09:25:44.884Z,22.20
2022-08-18T09:28:18.266Z,22.30
2022-08-18T09:30:52.996Z,22.30
2022-08-18T09:33:34.276Z,22.10
2022-08-18T09:36:32.270Z,22.10
2022-08-18T09:39:40.349Z,22.00
2022-08-18T09:42:14.400Z,21.90
2022-08-18T09:45:08.818Z,21.80
2022-08-18T09:48:02.544Z,21.80
2022-08-18T09:50:55.321Z,21.80
2022-08-18T09:53:54.077Z,21.80
2022-08-18T09:57:11.771Z,21.90
2022-08-18T10:00:28.269Z,21.90
2022-08-18T10:03:13.687Z,21.90
2022-08-18T10:05:59.444Z,21.80
2022-08-18T10:08:38.755Z,21.80
2022-08-18T10:11:42.799Z,21.70
2022-08-18T10:14:51.394Z,21.60
2022-08-18T10:17:42.105Z,21.60
2022-08-18T10:20:27.144Z,21.50
2022-08-18T10:22:58.006Z,21.50
2022-08-18T10:25:37.454Z,21.50
2022-08-18T10:28:10.026Z,21.60
2022-08-18T10:31:06.355Z,21.70
2022-08-18T10:34:19.034Z,21.70
2022-08-18T10:36:54.420Z,21.70
2022-08-18T10:39:46.394Z,21.70
2022-08-18T10:42:31.022Z,21.70
2022-08-18T10:45:09.359Z,21.80
2022-08-18T10:47:39.231Z,21.90
2022-08-18T10:50:20.394Z,21.90
2022-08-18T10:56:10.633Z,22.00
2022-08-18T10:58:51.085Z,22.00
2022-08-18T11:01:42.934Z,22.00
2022-08-18T11:04:34.127Z,22.00
2022-08-18T11:07:11.584Z,22.10
2022-08-18T11:09:50.767Z,22.10
2022-08-18T11:13:03.120Z,22.10
2022-08-18T11:15:50.571Z,22.20
2022-08-18T11:18:32.581Z,22.20
2022-08-18T11:21:32.824Z,22.20
2022-08-18T11:24:07.493Z,22.10
2022-08-18T11:26:41.213Z,22.10
2022-08-18T11:29:33.073Z,22.10
2022-08-18T11:32:11.130Z,22.10
2022-08-18T11:37:48.508Z,22.10
2022-08-18T11:41:10.846Z,22.10
2022-08-18T11:43:30.003Z,22.20
2022-08-18T11:52:26.155Z,22.20
2022-08-18T11:55:16.713Z,22.20
2022-08-18T11:57:58.940Z,22.10
2022-08-18T12:00:57.173Z,22.10
2022-08-18T12:03:37.790Z,22.00
2022-08-18T12:06:26.660Z,22.00
2022-08-18T12:09:00.478Z,22.00
2022-08-18T12:11:33.879Z,22.00
2022-08-18T12:16:59.726Z,22.00
2022-08-18T12:19:34.313Z,22.00
2022-08-18T12:22:17.552Z,22.00
2022-08-18T12:24:48.442Z,22.00
2022-08-18T12:27:22.204Z,22.00
2022-08-18T12:29:52.956Z,22.00
2022-08-18T12:32:52.669Z,22.00
2022-08-18T12:35:14.138Z,21.90
2022-08-18T12:38:11.227Z,21.90
2022-08-18T12:40:34.545Z,21.90
2022-08-18T12:43:03.669Z,21.90
2022-08-18T12:45:37.933Z,21.90
2022-08-18T12:48:07.873Z,21.80
2022-08-18T12:53:38.223Z,21.80
2022-08-18T12:56:24.735Z,21.80
2022-08-18T12:58:55.529Z,21.80
2022-08-18T13:01:26.665Z,21.80
2022-08-18T13:04:10.868Z,21.80
2022-08-18T13:07:00.335Z,21.90
2022-08-18T13:09:47.519Z,21.90
2022-08-18T13:12:20.838Z,21.90
2022-08-18T13:14:51.449Z,21.90
2022-08-18T13:17:32.122Z,21.90
2022-08-18T13:20:06.311Z,21.90
2022-08-18T13:22:41.071Z,22.00
2022-08-18T13:25:32.006Z,22.00
2022-08-18T13:28:02.465Z,22.10
2022-08-18T13:30:32.728Z,22.20
2022-08-18T13:33:06.012Z,22.30
2022-08-18T13:35:54.230Z,22.30
2022-08-18T13:38:27.681Z,22.40
2022-08-18T13:41:00.054Z,22.50
2022-08-18T13:43:35.174Z,22.50
2022-08-18T13:46:04.926Z,22.70
2022-08-18T13:48:34.902Z,22.80
2022-08-18T13:51:05.166Z,22.90
2022-08-18T13:53:50.557Z,23.00
2022-08-18T13:56:20.770Z,23.00
2022-08-18T13:59:01.739Z,23.10
2022-08-18T14:01:45.072Z,23.20
2022-08-18T14:04:22.973Z,23.30
2022-08-18T14:07:00.523Z,23.40
2022-08-18T14:09:37.263Z,23.40
2022-08-18T14:12:15.755Z,23.40
2022-08-18T14:14:52.384Z,23.50
2022-08-18T14:17:22.871Z,23.50
2022-08-18T14:20:10.447Z,23.60
2022-08-18T14:23:01.641Z,23.60
2022-08-18T14:25:51.456Z,23.70
2022-08-18T14:28:24.507Z,23.80
2022-08-18T14:30:55.274Z,23.80
2022-08-18T14:33:49.777Z,23.80
2022-08-18T14:36:16.673Z,23.80
2022-08-18T14:38:51.393Z,23.80
2022-08-18T14:41:27.220Z,23.80
2022-08-18T14:44:13.726Z,23.90
2022-08-18T14:46:54.069Z,24.10
2022-08-18T14:49:29.445Z,24.10
2022-08-18T14:51:59.895Z,24.20
2022-08-18T14:54:30.727Z,24.20
2022-08-18T14:57:02.894Z,24.20
2022-08-18T14:59:37.545Z,24.20
2022-08-18T15:02:11.231Z,24.20
2022-08-18T15:04:56.383Z,24.20
2022-08-18T15:07:27.709Z,24.30
2022-08-18T15:10:16.092Z,24.40
2022-08-18T15:12:47.365Z,24.50
2022-08-18T15:15:17.947Z,24.60
2022-08-18T15:17:50.047Z,24.70
2022-08-18T15:20:19.790Z,24.70
2022-08-18T15:23:10.736Z,24.70
2022-08-18T15:25:46.129Z,24.70
2022-08-18T15:28:20.247Z,24.70
2022-08-18T15:30:51.783Z,24.80
2022-08-18T15:33:25.295Z,24.80
2022-08-18T15:36:01.385Z,24.80
2022-08-18T15:38:30.648Z,24.80
2022-08-18T15:41:05.908Z,24.80
2022-08-18T15:43:40.063Z,24.70
2022-08-18T15:46:16.826Z,24.70
2022-08-18T15:48:46.130Z,24.70
2022-08-18T15:51:15.191Z,24.70
2022-08-18T15:53:46.323Z,24.60
2022-08-18T15:56:20.700Z,24.60
2022-08-18T15:58:53.206Z,24.60
2022-08-18T16:01:30.318Z,24.60
2022-08-18T16:04:03.241Z,24.60
2022-08-18T16:06:35.650Z,24.60
2022-08-18T16:09:05.593Z,24.50
2022-08-18T16:11:34.648Z,24.50
2022-08-18T16:14:05.031Z,24.40
2022-08-18T16:16:36.097Z,24.40
2022-08-18T16:19:07.685Z,24.30
2022-08-18T16:21:39.848Z,24.30
2022-08-18T16:24:09.554Z,24.20
2022-08-18T16:26:38.743Z,24.20
2022-08-18T16:29:09.329Z,24.20
2022-08-18T16:31:40.009Z,24.10
2022-08-18T16:34:09.539Z,24.10
2022-08-18T16:36:38.513Z,24.10
2022-08-18T16:39:07.577Z,24.00
2022-08-18T16:41:38.926Z,24.00
2022-08-18T16:44:09.441Z,24.00
2022-08-18T16:46:38.782Z,23.90
2022-08-18T16:49:08.218Z,23.90
2022-08-18T16:51:38.235Z,23.90
2022-08-18T16:54:07.453Z,23.80
2022-08-18T16:56:37.874Z,23.80
2022-08-18T16:59:25.864Z,23.80
2022-08-18T17:02:12.543Z,23.80
2022-08-18T17:04:41.919Z,23.60
2022-08-18T17:07:11.183Z,23.60
2022-08-18T17:09:40.776Z,23.60
2022-08-18T17:12:10.235Z,23.60
2022-08-18T17:14:40.742Z,23.60
2022-08-18T17:17:09.818Z,23.50
2022-08-18T17:19:38.912Z,23.50
2022-08-18T17:22:08.201Z,23.50
2022-08-18T17:24:37.769Z,23.50
2022-08-18T17:27:26.610Z,23.50
2022-08-18T17:30:05.414Z,23.40
2022-08-18T17:32:41.929Z,23.40
2022-08-18T17:35:14.901Z,23.40
2022-08-18T17:37:49.516Z,23.40
2022-08-18T17:40:22.283Z,23.40
2022-08-18T17:42:53.537Z,23.40
2022-08-18T17:45:24.714Z,23.40
2022-08-18T17:48:01.319Z,23.40
2022-08-18T17:50:53.703Z,23.30
2022-08-18T17:53:23.673Z,23.30
2022-08-18T17:55:59.871Z,23.30
2022-08-18T17:58:39.364Z,23.20
2022-08-18T18:01:10.877Z,23.10
2022-08-18T18:03:40.906Z,23.00
2022-08-18T18:06:15.133Z,23.00
2022-08-18T18:08:57.106Z,22.90
2022-08-18T18:11:31.013Z,22.80
2022-08-18T18:14:01.745Z,22.80
2022-08-18T18:16:36.028Z,22.70
2022-08-18T18:19:07.603Z,22.60
2022-08-18T18:21:58.881Z,22.50
2022-08-18T18:24:32.823Z,22.50
2022-08-18T18:27:02.312Z,22.30
2022-08-18T18:29:38.162Z,22.30
2022-08-18T18:32:25.334Z,22.20
2022-08-18T18:35:15.216Z,22.10
2022-08-18T18:37:54.091Z,22.00
2022-08-18T18:40:30.951Z,22.00
2022-08-18T18:43:20.238Z,21.80
2022-08-18T18:46:10.612Z,21.70
2022-08-18T18:49:00.623Z,21.60
2022-08-18T18:51:35.869Z,21.60
2022-08-18T18:54:16.579Z,21.50
2022-08-18T18:56:52.137Z,21.40
2022-08-18T18:59:35.658Z,21.40
2022-08-18T19:02:33.048Z,21.30
2022-08-18T19:05:16.714Z,21.20
2022-08-18T19:07:58.275Z,21.10
2022-08-18T19:10:35.092Z,21.10
2022-08-18T19:13:11.800Z,21.00
2022-08-18T19:15:58.854Z,21.00
2022-08-18T19:18:32.278Z,20.90
2022-08-18T19:22:03.535Z,20.80
2022-08-18T19:24:03.737Z,20.80
2022-08-18T19:26:38.966Z,20.70
2022-08-18T19:29:13.890Z,20.70
2022-08-18T19:31:48.946Z,20.60
2022-08-18T19:34:22.899Z,20.60
2022-08-18T19:37:07.134Z,20.60
2022-08-18T19:39:42.761Z,20.50
2022-08-18T19:42:20.912Z,20.50
2022-08-18T19:45:15.966Z,20.40
2022-08-18T19:47:51.376Z,20.30
2022-08-18T19:50:30.745Z,20.20
2022-08-18T19:53:16.448Z,20.20
2022-08-18T19:56:03.376Z,20.20
2022-08-18T19:59:11.492Z,20.20
2022-08-18T20:01:52.924Z,20.10
2022-08-18T20:04:36.158Z,20.10
2022-08-18T20:07:55.258Z,20.00
2022-08-18T20:10:54.154Z,20.00
2022-08-18T20:13:33.116Z,20.00
2022-08-18T20:16:16.232Z,19.90
2022-08-18T20:18:49.106Z,19.90
2022-08-18T20:21:45.416Z,19.90
2022-08-18T20:24:38.763Z,19.80
2022-08-18T20:27:35.147Z,19.80
2022-08-18T20:30:24.235Z,19.80
2022-08-18T20:33:19.945Z,19.80
2022-08-18T20:36:00.499Z,19.70
2022-08-18T20:38:34.868Z,19.60
2022-08-18T20:41:31.400Z,19.60
2022-08-18T20:44:32.544Z,19.50
2022-08-18T20:47:19.867Z,19.50
2022-08-18T20:50:00.988Z,19.50
2022-08-18T20:52:38.607Z,19.50
2022-08-18T20:55:27.523Z,19.40
2022-08-18T20:58:08.364Z,19.40
2022-08-18T21:00:44.363Z,19.40
2022-08-18T21:03:32.269Z,19.30
2022-08-18T21:06:07.318Z,19.40
2022-08-18T21:08:40.531Z,19.30
2022-08-18T21:11:30.970Z,19.30
2022-08-18T21:14:04.308Z,19.30
2022-08-18T21:16:39.389Z,19.30
2022-08-18T21:19:14.438Z,19.30
2022-08-18T21:21:53.715Z,19.20
2022-08-18T21:24:35.681Z,19.20
2022-08-18T21:27:07.989Z,19.10
2022-08-18T21:29:39.224Z,19.00
2022-08-18T21:32:21.963Z,19.00
2022-08-18T21:34:51.597Z,19.00
2022-08-18T21:37:21.237Z,19.00
2022-08-18T21:39:59.541Z,18.90
2022-08-18T21:42:31.931Z,18.80
2022-08-18T21:45:01.459Z,18.80
2022-08-18T21:47:34.414Z,18.80
2022-08-18T21:50:10.625Z,18.70
2022-08-18T21:52:51.148Z,18.70
2022-08-18T21:55:27.910Z,18.70
2022-08-18T21:58:05.528Z,18.70
2022-08-18T22:00:37.237Z,18.60
2022-08-18T22:03:21.731Z,18.60
2022-08-18T22:06:00.888Z,18.60
2022-08-18T22:08:32.724Z,18.60
2022-08-18T22:11:51.870Z,18.60
2022-08-18T22:14:54.062Z,18.50
2022-08-18T22:17:27.509Z,18.50
2022-08-18T22:20:35.152Z,18.50
2022-08-18T22:23:26.341Z,18.50
2022-08-18T22:26:06.170Z,18.40
2022-08-18T22:28:36.891Z,18.50
2022-08-18T22:31:06.505Z,18.40
2022-08-18T22:33:35.566Z,18.40
2022-08-18T22:36:06.749Z,18.40
2022-08-18T22:38:36.266Z,18.30
2022-08-18T22:41:05.380Z,18.30
2022-08-18T22:43:37.574Z,18.30
2022-08-18T22:46:06.905Z,18.20
2022-08-18T22:48:35.981Z,18.20
2022-08-18T22:51:07.899Z,18.20
2022-08-18T22:53:37.803Z,18.10
2022-08-18T22:56:08.194Z,18.10
2022-08-18T22:58:37.772Z,18.10
2022-08-18T23:01:08.359Z,18.10
2022-08-18T23:03:42.625Z,18.10
2022-08-18T23:06:13.214Z,18.10
2022-08-18T23:08:55.114Z,18.10
2022-08-18T23:11:25.900Z,18.00
2022-08-18T23:13:56.270Z,18.00
2022-08-18T23:16:31.848Z,18.00
2022-08-18T23:19:03.095Z,18.00
2022-08-18T23:21:35.806Z,18.00
2022-08-18T23:24:06.019Z,18.00
2022-08-18T23:26:36.272Z,17.90
2022-08-18T23:29:06.542Z,17.90
2022-08-18T23:31:35.608Z,17.90
2022-08-18T23:34:04.850Z,17.90
2022-08-18T23:36:36.134Z,17.90
2022-08-18T23:39:05.799Z,17.90
2022-08-18T23:41:35.905Z,17.90
2022-08-18T23:44:06.526Z,17.80
2022-08-18T23:46:36.358Z,17.70
2022-08-18T23:49:07.679Z,17.70
2022-08-18T23:51:44.642Z,17.80
2022-08-18T23:54:17.038Z,17.70
2022-08-18T23:56:46.987Z,17.70
2022-08-18T23:59:17.449Z,17.80
